Time;durP1;ratioP1;P1;durP2;ratioP2;P2;SDS_P1;SDS_P2;PMS_P1;PMS_P2;Temp;Humidity;BMP_temperature;BMP_pressure;BME280_temperature;BME280_humidity;BME280_pressure;Samples;Min_cycle;Max_cycle;Signal;HPM_P1;HPM_P2
2021/04/13 00:00:23;;;;;;;8.60;7.80;;;3.00;99.90;;;;;;5117747;28;20193;-77
2021/04/13 00:02:51;;;;;;;10.03;8.07;;;2.90;99.90;;;;;;5118166;28;20218;-78
2021/04/13 00:05:45;;;;;;;11.03;8.93;;;2.90;99.90;;;;;;5116745;28;20563;-78
2021/04/13 00:08:15;;;;;;;8.97;7.60;;;2.90;99.90;;;;;;5113812;28;20181;-78
2021/04/13 00:10:52;;;;;;;19.23;8.17;;;2.90;99.90;;;;;;5116436;28;20174;-78
2021/04/13 00:13:20;;;;;;;12.77;8.00;;;2.80;99.90;;;;;;5117289;28;20158;-78
2021/04/13 00:15:52;;;;;;;10.80;8.73;;;2.90;99.90;;;;;;5117948;28;20169;-80
2021/04/13 00:18:24;;;;;;;12.70;8.30;;;2.90;99.90;;;;;;5117779;28;20514;-80
2021/04/13 00:20:54;;;;;;;9.70;8.30;;;2.80;99.90;;;;;;5117194;28;20244;-80
2021/04/13 00:23:21;;;;;;;11.70;9.17;;;2.90;99.90;;;;;;5117473;28;20154;-78
2021/04/13 00:26:04;;;;;;;11.60;7.83;;;2.90;99.90;;;;;;5116096;28;20195;-79
2021/04/13 00:28:46;;;;;;;8.03;7.23;;;2.80;99.90;;;;;;5117213;28;20177;-79
2021/04/13 00:31:42;;;;;;;9.13;7.60;;;2.70;99.90;;;;;;5116253;28;20205;-79
2021/04/13 00:34:10;;;;;;;8.80;6.60;;;2.70;99.90;;;;;;5116364;28;20177;-80
2021/04/13 00:36:37;;;;;;;10.73;6.93;;;2.50;99.90;;;;;;5117574;28;20193;-79
2021/04/13 00:39:20;;;;;;;9.93;7.60;;;2.50;99.90;;;;;;5116984;28;20208;-79
2021/04/13 00:41:51;;;;;;;8.27;7.20;;;2.50;99.90;;;;;;5115714;28;20173;-79
2021/04/13 00:44:19;;;;;;;9.00;8.07;;;2.60;99.90;;;;;;5116057;28;20162;-79
2021/04/13 00:46:58;;;;;;;9.90;8.93;;;2.70;99.90;;;;;;5115845;28;20169;-79
2021/04/13 00:49:28;;;;;;;12.27;9.17;;;2.60;99.90;;;;;;5116876;28;20161;-79
2021/04/13 00:52:12;;;;;;;14.63;8.97;;;2.70;99.90;;;;;;5117443;28;20174;-79
2021/04/13 00:54:45;;;;;;;10.67;7.97;;;2.60;99.90;;;;;;5117081;28;20180;-79
2021/04/13 00:57:26;;;;;;;11.53;8.83;;;2.60;99.90;;;;;;5117076;28;20184;-79
2021/04/13 00:59:55;;;;;;;11.57;8.53;;;2.60;99.90;;;;;;5115473;28;20189;-79
2021/04/13 01:02:39;;;;;;;11.17;7.97;;;2.60;99.90;;;;;;5117077;28;20525;-79
2021/04/13 01:05:18;;;;;;;9.67;7.87;;;2.60;99.90;;;;;;5115667;28;20626;-79
2021/04/13 01:07:47;;;;;;;15.23;8.70;;;2.50;99.90;;;;;;5116713;28;20163;-80
2021/04/13 01:10:33;;;;;;;18.80;8.83;;;2.60;99.90;;;;;;5113444;28;20177;-79
2021/04/13 01:13:21;;;;;;;9.77;8.80;;;2.60;99.90;;;;;;5116670;28;20629;-79
2021/04/13 01:15:50;;;;;;;14.13;7.90;;;2.60;99.90;;;;;;5114814;28;20210;-79
2021/04/13 01:18:30;;;;;;;9.33;7.60;;;2.60;99.90;;;;;;5116167;28;20217;-79
2021/04/13 01:21:02;;;;;;;9.13;8.10;;;2.60;99.90;;;;;;5095044;28;20174;-79
2021/04/13 01:23:37;;;;;;;11.43;8.37;;;2.50;99.90;;;;;;5096076;28;20211;-79
2021/04/13 01:26:05;;;;;;;8.50;7.57;;;2.40;99.90;;;;;;5094925;28;20173;-79
2021/04/13 01:28:37;;;;;;;9.40;8.50;;;2.30;99.90;;;;;;5096304;28;20174;-79
2021/04/13 01:31:15;;;;;;;8.50;7.63;;;2.30;99.90;;;;;;5094606;28;20163;-79
2021/04/13 01:33:47;;;;;;;9.30;7.83;;;2.40;99.90;;;;;;5107661;28;20184;-79
2021/04/13 01:36:28;;;;;;;10.87;7.50;;;2.40;99.90;;;;;;5116127;28;20166;-79
2021/04/13 01:38:58;;;;;;;13.87;8.40;;;2.40;99.90;;;;;;5115825;28;20330;-79
2021/04/13 01:41:32;;;;;;;12.87;9.20;;;2.30;99.90;;;;;;5116186;28;20524;-79
2021/04/13 01:43:59;;;;;;;9.80;8.80;;;2.30;99.90;;;;;;5116202;28;20250;-79
2021/04/13 01:46:25;;;;;;;8.90;8.10;;;2.30;99.90;;;;;;5116126;28;20166;-79
2021/04/13 01:48:53;;;;;;;9.90;8.37;;;2.40;99.90;;;;;;5114439;28;20192;-79
2021/04/13 01:51:19;;;;;;;9.13;8.33;;;2.40;99.90;;;;;;5114816;28;20230;-78
2021/04/13 01:53:48;;;;;;;12.70;7.93;;;2.50;99.90;;;;;;5114730;28;20169;-79
2021/04/13 01:56:35;;;;;;;13.03;8.23;;;2.40;99.90;;;;;;5114356;28;20165;-79
2021/04/13 01:59:40;;;;;;;15.17;8.67;;;2.50;99.90;;;;;;5115719;28;20661;-79
2021/04/13 02:02:34;;;;;;;16.17;8.37;;;2.40;99.90;;;;;;5115618;28;20192;-79
2021/04/13 02:05:07;;;;;;;12.30;8.67;;;2.40;99.90;;;;;;5113662;28;20185;-79
2021/04/13 02:07:54;;;;;;;11.73;9.43;;;2.30;99.90;;;;;;5115491;28;20161;-79
2021/04/13 02:10:36;;;;;;;15.17;9.93;;;2.30;99.90;;;;;;5114481;28;20197;-79
2021/04/13 02:13:23;;;;;;;11.53;8.70;;;2.30;99.90;;;;;;5115670;28;20248;-79
2021/04/13 02:16:00;;;;;;;13.50;9.77;;;2.30;99.90;;;;;;5100749;28;20181;-79
2021/04/13 02:18:41;;;;;;;18.30;10.23;;;2.30;99.90;;;;;;5113113;28;20173;-79
2021/04/13 02:21:21;;;;;;;13.33;9.33;;;2.30;99.90;;;;;;5115390;28;20165;-78
2021/04/13 02:23:52;;;;;;;10.90;9.37;;;2.40;99.90;;;;;;5114207;28;20252;-79
2021/04/13 02:26:19;;;;;;;14.17;10.43;;;2.30;99.90;;;;;;5114199;28;20515;-79
2021/04/13 02:28:48;;;;;;;11.00;9.73;;;2.20;99.90;;;;;;5115323;28;20575;-79
2021/04/13 02:31:36;;;;;;;13.93;9.03;;;2.20;99.90;;;;;;5118572;27;20303;-79
2021/04/13 02:34:09;;;;;;;11.83;9.27;;;2.10;99.90;;;;;;5114745;28;20574;-79
2021/04/13 02:36:37;;;;;;;16.90;9.90;;;2.10;99.90;;;;;;5113714;28;20161;-80
2021/04/13 02:39:05;;;;;;;14.63;9.93;;;2.10;99.90;;;;;;5113400;28;20549;-79
2021/04/13 02:41:34;;;;;;;15.20;9.77;;;2.20;99.90;;;;;;5113830;28;20563;-79
2021/04/13 02:44:06;;;;;;;12.70;9.83;;;2.20;99.90;;;;;;5115012;28;20192;-79
2021/04/13 02:46:34;;;;;;;10.50;9.47;;;2.10;99.90;;;;;;5113447;28;20166;-79
2021/04/13 02:49:11;;;;;;;11.03;8.63;;;2.10;99.90;;;;;;5114448;28;20169;-79
2021/04/13 02:52:03;;;;;;;12.77;9.40;;;2.10;99.90;;;;;;5113662;28;20164;-79
2021/04/13 02:54:35;;;;;;;9.73;8.20;;;2.10;99.90;;;;;;5114779;28;20214;-79
2021/04/13 02:57:05;;;;;;;9.77;7.43;;;2.10;99.90;;;;;;5113300;28;20197;-79
2021/04/13 02:59:33;;;;;;;14.23;8.80;;;2.00;99.90;;;;;;5113311;28;20200;-79
2021/04/13 03:02:17;;;;;;;15.40;9.60;;;1.90;99.90;;;;;;5113082;28;20173;-79
2021/04/13 03:04:48;;;;;;;16.43;10.37;;;1.90;99.90;;;;;;5114875;28;20236;-78
2021/04/13 03:07:17;;;;;;;17.07;10.07;;;1.90;99.90;;;;;;5112603;28;20631;-79
2021/04/13 03:09:43;;;;;;;14.80;9.77;;;1.80;99.90;;;;;;5113184;28;20617;-79
2021/04/13 03:12:11;;;;;;;10.07;9.07;;;1.80;99.90;;;;;;5114740;28;20166;-79
2021/04/13 03:14:56;;;;;;;14.07;10.17;;;1.80;99.90;;;;;;5112917;28;20176;-79
2021/04/13 03:17:28;;;;;;;17.30;10.40;;;1.90;99.90;;;;;;5112774;28;20620;-79
2021/04/13 03:20:02;;;;;;;13.43;10.83;;;1.80;99.90;;;;;;5114280;27;20722;-78
2021/04/13 03:22:28;;;;;;;14.37;11.27;;;1.70;99.90;;;;;;5114101;28;20168;-79
2021/04/13 03:24:56;;;;;;;13.40;9.70;;;1.70;99.90;;;;;;5114089;28;20635;-79
2021/04/13 03:27:27;;;;;;;14.03;9.33;;;1.70;99.90;;;;;;5112462;28;20242;-79
2021/04/13 03:30:28;;;;;;;13.77;9.97;;;1.70;99.90;;;;;;5092487;28;20192;-79
2021/04/13 03:33:12;;;;;;;12.27;9.27;;;1.70;99.90;;;;;;5093310;28;20178;-79
2021/04/13 03:35:38;;;;;;;16.63;10.67;;;1.70;99.90;;;;;;5094474;28;20634;-79
2021/04/13 03:38:08;;;;;;;16.73;11.00;;;1.70;99.90;;;;;;5112452;28;20165;-79
2021/04/13 03:40:36;;;;;;;20.80;10.63;;;1.80;99.90;;;;;;5112765;28;20238;-79
2021/04/13 03:43:09;;;;;;;18.13;10.43;;;1.70;99.90;;;;;;5112853;28;20177;-79
2021/04/13 03:45:37;;;;;;;14.43;10.70;;;1.60;99.90;;;;;;5112278;28;20177;-79
2021/04/13 03:48:08;;;;;;;12.43;10.03;;;1.50;99.90;;;;;;5112665;28;20635;-79
2021/04/13 03:50:39;;;;;;;14.43;10.37;;;1.40;99.90;;;;;;5114067;28;20154;-78
2021/04/13 03:53:16;;;;;;;13.00;9.87;;;1.50;99.90;;;;;;5112917;28;20602;-79
2021/04/13 03:56:06;;;;;;;17.53;10.63;;;1.50;99.90;;;;;;5114002;28;20195;-79
2021/04/13 03:58:40;;;;;;;11.10;8.40;;;1.60;99.90;;;;;;5113777;28;20190;-79
2021/04/13 04:01:08;;;;;;;12.83;9.20;;;1.60;99.90;;;;;;5112616;28;20602;-79
2021/04/13 04:03:36;;;;;;;11.83;9.90;;;1.50;99.90;;;;;;5113482;28;20230;-79
2021/04/13 04:06:03;;;;;;;12.77;10.60;;;1.60;99.90;;;;;;5113056;28;20252;-79
2021/04/13 04:08:43;;;;;;;14.83;10.40;;;1.60;99.90;;;;;;5113587;28;20707;-79
2021/04/13 04:11:09;;;;;;;14.90;10.33;;;1.50;99.90;;;;;;5112432;28;20157;-79
2021/04/13 04:13:38;;;;;;;11.57;10.23;;;1.40;99.90;;;;;;5113641;28;20229;-79
2021/04/13 04:16:06;;;;;;;10.83;9.63;;;1.30;99.90;;;;;;5112148;28;20173;-79
2021/04/13 04:18:40;;;;;;;13.07;10.33;;;1.20;99.90;;;;;;5112361;28;20214;-79
2021/04/13 04:21:22;;;;;;;13.97;10.63;;;1.20;99.90;;;;;;5113560;28;20288;-79
2021/04/13 04:24:04;;;;;;;17.30;10.93;;;1.30;99.90;;;;;;5113999;28;20154;-79
2021/04/13 04:26:33;;;;;;;13.63;11.60;;;1.30;99.90;;;;;;5113215;28;20298;-79
2021/04/13 04:29:32;;;;;;;18.50;12.27;;;1.30;99.90;;;;;;5112351;28;20181;-79
2021/04/13 04:32:14;;;;;;;17.70;11.77;;;1.20;99.90;;;;;;5112065;28;20182;-79
2021/04/13 04:34:39;;;;;;;18.33;12.53;;;1.10;99.90;;;;;;5112075;28;20169;-79
2021/04/13 04:37:46;;;;;;;18.23;12.43;;;1.10;99.90;;;;;;5112915;28;20214;-79
2021/04/13 04:40:51;;;;;;;17.57;13.00;;;1.10;99.90;;;;;;5056300;28;20217;-79
2021/04/13 04:43:20;;;;;;;28.23;13.20;;;1.10;99.90;;;;;;5111954;28;20193;-79
2021/04/13 04:45:49;;;;;;;23.13;13.80;;;1.10;99.90;;;;;;5115345;28;20227;-79
2021/04/13 04:48:31;;;;;;;15.07;13.50;;;1.20;99.90;;;;;;5115941;28;20196;-79
2021/04/13 04:50:59;;;;;;;23.97;13.63;;;1.40;99.90;;;;;;5117185;28;20176;-79
2021/04/13 04:53:27;;;;;;;24.73;15.83;;;1.40;99.90;;;;;;5115777;28;20170;-79
2021/04/13 04:55:54;;;;;;;19.07;14.63;;;1.50;99.90;;;;;;5115617;28;20256;-80
2021/04/13 04:58:21;;;;;;;24.17;15.13;;;1.60;99.90;;;;;;5115739;28;20662;-79
2021/04/13 05:00:48;;;;;;;19.27;13.50;;;1.50;99.90;;;;;;5115793;28;20222;-79
2021/04/13 05:03:15;;;;;;;17.53;13.53;;;1.60;99.90;;;;;;5117041;28;20621;-79
2021/04/13 05:05:41;;;;;;;18.47;14.37;;;1.60;99.90;;;;;;5116339;28;20169;-79
2021/04/13 05:08:07;;;;;;;18.33;13.50;;;1.60;99.90;;;;;;5116770;28;20532;-79
2021/04/13 05:10:32;;;;;;;23.63;14.03;;;1.50;99.90;;;;;;5115558;28;20165;-79
2021/04/13 05:12:58;;;;;;;16.83;12.73;;;1.60;99.90;;;;;;5116554;28;20256;-78
2021/04/13 05:15:23;;;;;;;19.17;13.00;;;1.50;99.90;;;;;;5115216;28;20165;-79
2021/04/13 05:17:49;;;;;;;17.93;12.67;;;1.40;99.90;;;;;;5115223;28;20205;-79
2021/04/13 05:20:16;;;;;;;22.10;14.17;;;1.50;99.90;;;;;;5115264;28;20266;-79
2021/04/13 05:22:43;;;;;;;16.87;13.13;;;1.60;99.90;;;;;;5116594;27;20169;-79
2021/04/13 05:25:09;;;;;;;20.97;14.93;;;1.70;99.90;;;;;;5116714;28;20256;-79
2021/04/13 05:27:35;;;;;;;21.40;13.73;;;1.70;99.90;;;;;;5115890;28;20165;-79
2021/04/13 05:30:00;;;;;;;19.70;13.57;;;1.80;99.90;;;;;;5115095;28;20184;-79
2021/04/13 05:32:26;;;;;;;18.53;12.67;;;1.90;99.90;;;;;;5116292;28;20189;-79
2021/04/13 05:34:52;;;;;;;19.83;13.27;;;2.00;99.90;;;;;;5094280;28;20178;-79
2021/04/13 05:37:17;;;;;;;16.53;13.37;;;2.10;99.90;;;;;;5127768;27;20173;-79
2021/04/13 05:39:43;;;;;;;18.23;13.50;;;2.20;99.90;;;;;;5136640;27;20556;-79
2021/04/13 05:42:18;;;;;;;19.50;14.57;;;2.30;99.90;;;;;;5135486;27;20172;-79
2021/04/13 05:44:44;;;;;;;19.27;13.80;;;2.50;99.90;;;;;;5128028;27;20162;-78
2021/04/13 05:47:12;;;;;;;20.10;13.87;;;2.50;99.90;;;;;;5114539;28;20274;-79
2021/04/13 05:49:38;;;;;;;15.40;13.10;;;2.60;99.90;;;;;;5114591;28;20231;-79
2021/04/13 05:52:05;;;;;;;19.27;13.13;;;2.60;99.90;;;;;;5114655;28;20702;-79
2021/04/13 05:54:31;;;;;;;13.77;11.97;;;2.70;99.90;;;;;;5115335;28;20170;-79
2021/04/13 05:56:57;;;;;;;18.47;12.10;;;2.70;99.90;;;;;;5116379;28;20307;-78
2021/04/13 05:59:22;;;;;;;20.27;13.07;;;2.70;99.90;;;;;;5115871;28;20189;-79
2021/04/13 06:01:49;;;;;;;22.77;13.83;;;2.70;99.90;;;;;;5114495;28;20172;-79
2021/04/13 06:04:15;;;;;;;15.50;12.50;;;2.90;99.90;;;;;;5114005;28;20610;-79
2021/04/13 06:06:41;;;;;;;19.37;11.90;;;3.00;99.90;;;;;;5097206;28;20184;-78
2021/04/13 06:09:07;;;;;;;18.10;11.83;;;3.10;99.90;;;;;;5114356;28;20177;-79
2021/04/13 06:11:33;;;;;;;15.57;11.20;;;3.20;99.90;;;;;;5113986;28;20176;-78
2021/04/13 06:14:00;;;;;;;14.93;11.83;;;3.40;99.90;;;;;;5115811;28;20161;-79
2021/04/13 06:16:37;;;;;;;13.27;11.03;;;3.50;99.90;;;;;;5115356;28;20522;-78
2021/04/13 06:19:03;;;;;;;23.03;12.83;;;3.70;99.90;;;;;;5114247;28;20193;-79
2021/04/13 06:21:29;;;;;;;18.73;14.10;;;3.90;99.90;;;;;;5114992;28;20177;-79
2021/04/13 06:23:55;;;;;;;19.33;13.80;;;4.10;99.90;;;;;;5115212;28;20667;-79
2021/04/13 06:26:21;;;;;;;20.40;12.83;;;4.20;99.90;;;;;;5115172;27;20161;-79
2021/04/13 06:28:47;;;;;;;15.93;13.17;;;4.30;99.90;;;;;;5113752;28;20199;-79
2021/04/13 06:31:13;;;;;;;22.17;13.43;;;4.40;99.90;;;;;;5096457;28;20185;-79
2021/04/13 06:33:38;;;;;;;16.23;12.53;;;4.50;99.90;;;;;;5113400;28;20192;-79
2021/04/13 06:36:06;;;;;;;15.77;13.83;;;4.70;99.90;;;;;;5113846;28;20184;-78
2021/04/13 06:38:36;;;;;;;15.10;13.40;;;4.90;99.90;;;;;;5114916;28;20173;-79
2021/04/13 06:41:35;;;;;;;15.87;12.93;;;5.00;99.90;;;;;;5113913;28;20173;-79
2021/04/13 06:44:08;;;;;;;20.37;12.80;;;5.10;99.90;;;;;;5114485;28;20188;-79
2021/04/13 06:47:14;;;;;;;18.53;12.27;;;5.40;99.90;;;;;;5113446;28;20172;-79
2021/04/13 06:49:59;;;;;;;26.00;13.97;;;5.50;99.90;;;;;;5115013;28;20549;-78
2021/04/13 06:52:53;;;;;;;19.50;13.57;;;5.60;99.90;;;;;;5113281;28;20223;-79
2021/04/13 06:55:43;;;;;;;19.73;13.80;;;5.70;99.90;;;;;;5115125;28;20181;-79
2021/04/13 06:58:36;;;;;;;17.87;13.57;;;5.80;99.90;;;;;;5114341;28;20178;-79
2021/04/13 07:01:26;;;;;;;20.80;13.10;;;6.00;99.90;;;;;;5114509;28;20184;-79
2021/04/13 07:04:20;;;;;;;18.10;12.40;;;6.70;99.90;;;;;;5112388;28;20181;-79
2021/04/13 07:06:54;;;;;;;13.40;11.50;;;9.70;99.90;;;;;;5112352;28;20682;-79
2021/04/13 07:09:38;;;;;;;11.70;10.52;;;13.40;99.90;;;;;;5114311;28;20197;-79
2021/04/13 07:12:24;;;;;;;11.05;9.55;;;16.90;99.90;;;;;;5114367;28;20163;-79
2021/04/13 07:15:16;;;;;;;10.27;8.82;;;19.80;99.90;;;;;;5113063;28;20580;-79
2021/04/13 07:18:01;;;;;;;15.20;9.15;;;22.10;95.10;;;;;;5103140;28;20581;-79
2021/04/13 07:20:35;;;;;;;10.45;8.60;;;23.80;90.80;;;;;;5113185;28;20189;-79
2021/04/13 07:23:10;;;;;;;11.15;8.48;;;25.40;82.70;;;;;;5114008;28;20573;-77
2021/04/13 07:26:01;;;;;;;8.75;7.63;;;26.50;78.50;;;;;;5114559;28;20149;-77
2021/04/13 07:28:36;;;;;;;9.32;8.10;;;27.40;73.60;;;;;;5113792;28;20192;-76
2021/04/13 07:31:06;;;;;;;7.53;6.93;;;28.10;70.70;;;;;;5112729;28;20651;-78
2021/04/13 07:33:33;;;;;;;11.85;7.88;;;28.60;67.90;;;;;;5114324;28;20185;-76
2021/04/13 07:36:12;;;;;;;10.15;7.60;;;29.00;66.50;;;;;;5114224;28;20158;-77
2021/04/13 07:38:45;;;;;;;10.43;7.80;;;29.70;63.80;;;;;;5112786;28;20157;-77
2021/04/13 07:41:16;;;;;;;11.48;8.63;;;30.40;62.60;;;;;;5113634;28;20193;-78
2021/04/13 07:43:52;;;;;;;13.20;8.68;;;31.00;60.90;;;;;;5113623;28;20238;-77
2021/04/13 07:46:49;;;;;;;11.77;9.13;;;31.50;59.30;;;;;;5112776;28;20165;-77
2021/04/13 07:49:39;;;;;;;10.55;8.10;;;31.70;57.70;;;;;;5112616;28;20209;-78
2021/04/13 07:52:11;;;;;;;9.38;7.47;;;31.80;57.70;;;;;;5113546;28;20210;-77
2021/04/13 07:54:51;;;;;;;9.13;8.02;;;31.60;56.90;;;;;;5111867;28;20177;-77
2021/04/13 07:57:27;;;;;;;8.25;7.43;;;31.90;57.30;;;;;;5106532;28;20591;-77
2021/04/13 08:00:12;;;;;;;11.00;8.02;;;32.20;56.30;;;;;;5108725;28;20160;-77
2021/04/13 08:02:38;;;;;;;10.80;7.85;;;32.60;56.40;;;;;;5112300;28;20586;-78
2021/04/13 08:05:05;;;;;;;8.52;6.55;;;33.30;56.90;;;;;;5113974;28;20169;-77
2021/04/13 08:07:57;;;;;;;9.07;7.55;;;33.50;55.20;;;;;;5113470;28;20558;-78
2021/04/13 08:10:26;;;;;;;11.77;6.70;;;33.60;53.60;;;;;;5113222;28;20735;-78
2021/04/13 08:13:01;;;;;;;9.55;6.30;;;33.90;54.80;;;;;;5113463;28;20201;-78
2021/04/13 08:15:53;;;;;;;14.50;5.82;;;33.60;53.40;;;;;;5111788;28;20172;-77
2021/04/13 08:18:41;;;;;;;7.10;5.75;;;32.80;54.00;;;;;;5111866;28;20665;-76
2021/04/13 08:21:32;;;;;;;11.55;5.28;;;33.40;53.80;;;;;;5117313;28;20533;-76
2021/04/13 08:23:58;;;;;;;14.15;4.82;;;32.80;54.50;;;;;;5117802;28;20185;-77
2021/04/13 08:26:29;;;;;;;6.03;4.43;;;32.00;53.20;;;;;;5103716;28;20177;-78
2021/04/13 08:29:13;;;;;;;8.07;4.22;;;31.50;55.20;;;;;;5128267;27;20196;-76
2021/04/13 08:35:00;;;;;;;6.82;3.30;;;30.00;56.20;;;;;;5114033;27;20650;-76
2021/04/13 08:37:30;;;;;;;5.05;2.40;;;24.60;56.90;;;;;;5104379;27;20174;-76
2021/04/13 08:40:53;;;;;;;5.63;2.90;;;21.80;63.70;;;;;;5097064;28;20151;-76
2021/04/13 08:43:30;;;;;;;4.10;2.83;;;21.50;68.20;;;;;;5039431;28;20202;-76
2021/04/13 08:46:07;;;;;;;6.30;3.08;;;25.30;61.80;;;;;;5054127;28;20162;-76
2021/04/13 08:48:54;;;;;;;6.13;3.72;;;27.10;58.90;;;;;;5080685;28;20181;-77
2021/04/13 08:51:33;;;;;;;5.57;3.58;;;26.00;58.70;;;;;;5095606;28;20173;-76
2021/04/13 08:54:21;;;;;;;8.00;3.72;;;24.60;60.60;;;;;;5112261;28;20193;-76
2021/04/13 08:57:17;;;;;;;9.55;3.92;;;22.20;63.40;;;;;;5127870;27;20161;-76
2021/04/13 08:59:50;;;;;;;9.48;3.50;;;20.50;69.50;;;;;;5137869;27;20153;-76
2021/04/13 09:02:38;;;;;;;5.05;2.70;;;23.40;64.90;;;;;;5137738;27;20168;-75
2021/04/13 09:05:13;;;;;;;9.18;2.90;;;25.70;58.90;;;;;;5129971;27;20296;-77
2021/04/13 09:07:49;;;;;;;6.35;2.72;;;22.40;60.60;;;;;;5133444;27;20617;-76
2021/04/13 09:10:41;;;;;;;4.88;2.67;;;22.60;66.20;;;;;;5115798;27;20329;-76
2021/04/13 09:13:22;;;;;;;5.43;2.53;;;26.00;59.50;;;;;;5105518;27;20174;-76
2021/04/13 09:15:59;;;;;;;6.40;2.13;;;27.70;57.80;;;;;;5095912;28;20506;-76
2021/04/13 09:18:45;;;;;;;6.28;1.95;;;27.00;55.60;;;;;;5096335;28;20219;-78
2021/04/13 09:21:30;;;;;;;10.15;2.05;;;25.50;58.30;;;;;;5087280;28;20192;-76
2021/04/13 09:24:18;;;;;;;10.90;2.22;;;25.40;58.90;;;;;;5096182;28;20174;-78
2021/04/13 09:26:56;;;;;;;4.32;1.73;;;24.00;59.80;;;;;;5109671;28;20162;-75
2021/04/13 09:29:39;;;;;;;5.78;1.73;;;22.20;61.50;;;;;;5114014;28;20212;-74
2021/04/13 09:32:30;;;;;;;4.90;1.95;;;20.70;65.10;;;;;;5115717;28;20277;-78
2021/04/13 09:35:20;;;;;;;3.80;1.63;;;19.30;68.20;;;;;;5116413;28;20594;-77
2021/04/13 09:37:50;;;;;;;4.80;1.80;;;18.60;72.20;;;;;;5116205;28;20158;-77
2021/04/13 09:40:44;;;;;;;5.55;1.73;;;21.40;67.10;;;;;;5115507;28;20185;-77
2021/04/13 09:44:02;;;;;;;4.45;2.05;;;23.30;61.50;;;;;;5114846;28;20236;-77
2021/04/13 09:46:46;;;;;;;9.80;1.98;;;25.60;58.80;;;;;;5071163;28;20185;-76
2021/04/13 09:49:20;;;;;;;4.85;1.65;;;24.50;58.20;;;;;;5114913;28;20193;-76
2021/04/13 09:52:17;;;;;;;5.30;1.50;;;21.80;62.80;;;;;;5115977;28;20161;-78
2021/04/13 09:54:49;;;;;;;4.82;1.48;;;19.90;66.10;;;;;;5113886;28;20168;-77
2021/04/13 09:57:38;;;;;;;4.07;1.52;;;20.60;66.80;;;;;;5114252;28;20570;-77
2021/04/13 10:00:35;;;;;;;6.28;1.52;;;25.00;60.30;;;;;;5115830;28;20188;-77
2021/04/13 10:03:37;;;;;;;4.70;1.40;;;28.20;57.10;;;;;;5115271;28;20169;-78
2021/04/13 10:06:06;;;;;;;7.32;1.42;;;26.90;54.90;;;;;;5115901;28;20263;-75
2021/04/13 10:08:33;;;;;;;3.88;1.55;;;25.20;56.70;;;;;;5115400;28;20617;-74
2021/04/13 10:11:21;;;;;;;3.75;1.40;;;21.70;60.60;;;;;;5113273;28;20173;-77
2021/04/13 10:14:10;;;;;;;6.80;1.70;;;20.00;67.00;;;;;;5113897;28;20223;-77
2021/04/13 10:16:53;;;;;;;3.55;1.85;;;18.20;68.50;;;;;;5113891;28;20177;-78
2021/04/13 10:19:39;;;;;;;6.13;1.77;;;16.60;72.60;;;;;;5115610;28;20158;-77
2021/04/13 10:22:47;;;;;;;3.08;1.50;;;20.40;67.50;;;;;;5110656;28;20172;-77
2021/04/13 10:25:31;;;;;;;5.53;1.55;;;24.70;62.20;;;;;;5106201;28;20175;-74
2021/04/13 10:28:38;;;;;;;6.40;1.83;;;28.10;55.90;;;;;;5115162;28;20187;-74
2021/04/13 10:31:33;;;;;;;9.68;1.90;;;28.10;54.40;;;;;;5113325;28;20567;-73
2021/04/13 10:34:25;;;;;;;6.07;1.70;;;25.00;56.10;;;;;;5114307;28;20188;-74
2021/04/13 10:37:09;;;;;;;3.28;1.40;;;24.90;59.20;;;;;;5084852;28;20540;-75
2021/04/13 10:39:55;;;;;;;2.72;1.30;;;26.90;57.20;;;;;;5113972;28;20173;-76
2021/04/13 10:42:39;;;;;;;2.47;1.15;;;29.50;54.20;;;;;;5113872;28;20553;-75
2021/04/13 10:45:17;;;;;;;4.97;1.70;;;31.40;51.80;;;;;;5113970;28;20165;-74
2021/04/13 10:48:13;;;;;;;3.42;1.40;;;30.80;51.70;;;;;;5114898;28;20153;-74
2021/04/13 10:51:14;;;;;;;3.90;1.40;;;32.10;51.00;;;;;;5114794;28;20250;-73
2021/04/13 10:54:13;;;;;;;1.48;1.17;;;33.50;48.80;;;;;;5086215;28;20181;-74
2021/04/13 10:56:58;;;;;;;7.65;1.73;;;29.90;48.60;;;;;;5113179;28;20180;-76
2021/04/13 10:59:43;;;;;;;2.22;1.30;;;28.60;51.00;;;;;;5112675;28;20180;-73
2021/04/13 11:02:49;;;;;;;2.05;1.20;;;25.80;53.50;;;;;;5114317;28;20295;-74
2021/04/13 11:05:32;;;;;;;2.90;1.58;;;22.60;56.40;;;;;;5113824;28;20162;-74
2021/04/13 11:08:34;;;;;;;2.72;1.40;;;22.90;57.30;;;;;;5114550;28;20249;-74
2021/04/13 11:11:18;;;;;;;11.80;1.63;;;24.70;55.50;;;;;;5114389;28;20310;-76
2021/04/13 11:13:49;;;;;;;2.70;1.38;;;26.20;55.00;;;;;;5114222;28;20252;-76
2021/04/13 11:16:41;;;;;;;7.32;1.73;;;28.10;53.80;;;;;;5113266;28;20519;-77
2021/04/13 11:19:24;;;;;;;3.03;1.52;;;29.90;51.00;;;;;;5112955;28;20165;-76
2021/04/13 11:22:09;;;;;;;1.38;1.23;;;30.70;50.00;;;;;;5114455;28;20194;-76
2021/04/13 11:24:37;;;;;;;3.63;1.48;;;26.80;52.70;;;;;;5112819;28;20222;-76
2021/04/13 11:27:12;;;;;;;3.88;1.25;;;24.60;52.40;;;;;;5114056;28;20203;-77
2021/04/13 11:29:56;;;;;;;9.15;1.35;;;22.80;55.80;;;;;;5112959;28;20254;-76
2021/04/13 11:32:43;;;;;;;4.20;1.80;;;22.60;57.10;;;;;;5114173;28;20536;-73
2021/04/13 11:35:26;;;;;;;3.85;1.25;;;26.00;53.70;;;;;;5113004;28;20261;-73
2021/04/13 11:38:32;;;;;;;2.05;1.20;;;26.80;51.30;;;;;;5112942;28;20166;-74
2021/04/13 11:41:20;;;;;;;2.72;1.40;;;27.00;50.80;;;;;;5114100;28;20176;-73
2021/04/13 11:44:19;;;;;;;3.05;1.52;;;27.20;49.80;;;;;;5113861;28;20621;-74
2021/04/13 11:46:55;;;;;;;3.78;1.50;;;28.60;52.50;;;;;;5092720;28;20234;-73
2021/04/13 11:49:48;;;;;;;3.58;1.45;;;28.80;51.70;;;;;;5112721;28;20220;-73
2021/04/13 11:52:42;;;;;;;3.47;1.52;;;27.40;50.50;;;;;;5113093;28;20185;-73
2021/04/13 11:55:29;;;;;;;3.90;1.70;;;26.70;53.10;;;;;;5114056;28;20154;-73
2021/04/13 11:58:24;;;;;;;3.70;1.25;;;25.40;51.30;;;;;;5113765;28;20606;-74
2021/04/13 12:00:52;;;;;;;3.10;1.25;;;26.00;53.50;;;;;;5113847;28;20172;-74
2021/04/13 12:03:36;;;;;;;6.38;0.90;;;26.80;50.20;;;;;;5114148;28;20252;-74
2021/04/13 12:06:13;;;;;;;1.98;0.95;;;27.70;49.60;;;;;;5112700;28;20260;-74
2021/04/13 12:08:43;;;;;;;3.65;1.30;;;28.40;48.90;;;;;;5113464;28;20177;-74
2021/04/13 12:11:29;;;;;;;3.38;1.10;;;29.10;49.90;;;;;;5112633;28;20192;-75
2021/04/13 12:13:54;;;;;;;1.60;1.17;;;28.00;49.70;;;;;;5124374;27;20534;-74
2021/04/13 12:16:46;;;;;;;3.17;1.35;;;28.00;48.60;;;;;;5093415;28;20166;-74
2021/04/13 12:19:20;;;;;;;2.28;0.95;;;27.80;47.80;;;;;;5093359;28;20166;-73
2021/04/13 12:21:54;;;;;;;2.38;0.93;;;28.10;48.00;;;;;;5109555;28;20610;-73
2021/04/13 12:24:38;;;;;;;1.77;0.90;;;24.10;48.50;;;;;;5113369;28;20499;-77
2021/04/13 12:27:42;;;;;;;3.13;2.22;;;24.00;51.10;;;;;;5113458;28;20162;-76
2021/04/13 12:30:29;;;;;;;9.77;1.63;;;24.10;53.90;;;;;;5113106;28;20292;-76
2021/04/13 12:32:55;;;;;;;4.35;1.05;;;22.20;54.60;;;;;;5113049;28;20197;-77
2021/04/13 12:35:48;;;;;;;1.42;0.70;;;20.60;56.90;;;;;;5091820;28;20174;-76
2021/04/13 12:38:42;;;;;;;1.75;1.20;;;18.40;58.50;;;;;;5093215;28;20503;-76
2021/04/13 12:41:29;;;;;;;2.08;1.10;;;16.20;62.90;;;;;;5102486;28;20174;-77
2021/04/13 12:43:58;;;;;;;3.90;0.90;;;16.00;64.40;;;;;;5110882;28;20518;-77
2021/04/13 12:46:34;;;;;;;3.97;0.93;;;16.20;62.40;;;;;;5113752;28;20189;-76
2021/04/13 12:49:11;;;;;;;1.33;1.00;;;16.50;66.30;;;;;;5113361;28;20237;-78
2021/04/13 12:52:05;;;;;;;2.17;1.10;;;15.80;64.30;;;;;;5113274;28;20184;-76
2021/04/13 12:54:39;;;;;;;4.35;1.20;;;15.50;61.70;;;;;;5113401;28;20237;-77
2021/04/13 12:57:10;;;;;;;3.45;1.35;;;15.50;61.80;;;;;;5113254;28;20195;-76
2021/04/13 12:59:37;;;;;;;2.67;1.25;;;15.50;61.20;;;;;;5112147;28;20268;-77
2021/04/13 13:02:05;;;;;;;1.60;1.00;;;15.40;63.30;;;;;;5111632;28;20170;-77
2021/04/13 13:04:41;;;;;;;5.60;2.70;;;15.60;63.40;;;;;;5107036;28;20174;-76
2021/04/13 13:07:24;;;;;;;1.65;1.30;;;15.70;64.30;;;;;;5116583;28;20222;-77
2021/04/13 13:09:51;;;;;;;6.05;1.30;;;15.90;62.80;;;;;;5116356;28;20193;-78
2021/04/13 13:12:32;;;;;;;2.85;1.38;;;15.50;63.20;;;;;;5116316;28;20201;-78
2021/04/13 13:15:10;;;;;;;1.67;0.95;;;15.10;62.30;;;;;;5115174;28;20158;-77
2021/04/13 13:17:39;;;;;;;1.65;1.10;;;14.70;63.40;;;;;;5116556;28;20655;-78
2021/04/13 13:20:11;;;;;;;1.23;0.98;;;14.70;62.80;;;;;;5115954;28;20580;-77
2021/04/13 13:22:49;;;;;;;1.83;1.20;;;14.60;61.40;;;;;;5116216;28;20236;-78
2021/04/13 13:25:20;;;;;;;1.25;0.82;;;15.10;67.00;;;;;;5115029;28;20518;-79
2021/04/13 13:27:46;;;;;;;2.75;1.35;;;15.50;65.70;;;;;;5114564;28;20241;-79
2021/04/13 13:30:16;;;;;;;8.10;1.40;;;15.90;65.60;;;;;;5115064;28;20626;-79
2021/04/13 13:32:42;;;;;;;3.33;1.00;;;16.40;66.80;;;;;;5114812;28;20440;-79
2021/04/13 13:35:12;;;;;;;2.10;0.95;;;16.30;64.70;;;;;;5114330;28;20170;-78
2021/04/13 13:37:47;;;;;;;1.65;0.95;;;16.20;65.80;;;;;;5114271;28;20165;-79
2021/04/13 13:40:16;;;;;;;4.90;1.25;;;16.40;62.60;;;;;;5116455;28;20177;-78